Chester, Indiana
Current Conditions -  °F | °C
As of 12:35 PM on Tuesday 21 Oct 2014 (Local Time) from KVES Reporting Station
Overcast Overcast  
Wind Chill: 40°   Ceiling: 1900
Heat Index: 46°   Visibility: 10mi
Dew Point: 45°   Wind: 16mph
Humidity: 93%   Direction: 350°N
Pressure: 30.05"   Gusts: NA
Location:  39.8311°N, 84.8879°W
Report Text: KVES 211635Z AUTO 35014KT 10SM OVC019 08/07 A3005 RMK AO2
Loading
Personal Weather Stations






























Interactive Weather Map
Tropical Storm Tracking
New forecast layout! Learn more

10-Day Weather Forecast

Advertisements
Track Severe Weather on mobile